createdAt,value
2022-12-03T00:00:16.482Z,39.07
2022-12-03T00:02:44.719Z,33.83
2022-12-03T00:05:13.133Z,30.23
2022-12-03T00:07:42.727Z,30.63
2022-12-03T00:10:11.828Z,34.17
2022-12-03T00:12:40.115Z,34.60
2022-12-03T00:15:10.747Z,32.33
2022-12-03T00:17:39.194Z,32.73
2022-12-03T00:20:09.757Z,30.77
2022-12-03T00:22:37.956Z,30.00
2022-12-03T00:25:09.488Z,29.80
2022-12-03T00:27:37.639Z,29.90
2022-12-03T00:30:08.449Z,30.63
2022-12-03T00:32:39.610Z,33.00
2022-12-03T00:35:08.793Z,35.40
2022-12-03T00:37:36.992Z,28.57
2022-12-03T00:40:08.063Z,28.23
2022-12-03T00:42:36.255Z,26.43
2022-12-03T00:45:05.129Z,28.40
2022-12-03T00:47:33.257Z,27.93
2022-12-03T00:50:01.427Z,30.23
2022-12-03T00:52:29.579Z,25.80
2022-12-03T00:54:57.769Z,28.93
2022-12-03T00:57:27.367Z,27.53
2022-12-03T00:59:55.518Z,25.83
2022-12-03T01:02:23.932Z,30.00
2022-12-03T01:04:52.553Z,28.47
2022-12-03T01:07:21.024Z,28.37
2022-12-03T01:09:49.315Z,29.03
2022-12-03T01:12:17.534Z,26.30
2022-12-03T01:14:47.333Z,28.33
2022-12-03T01:17:15.513Z,26.23
2022-12-03T01:19:48.300Z,28.63
2022-12-03T01:22:16.809Z,26.43
2022-12-03T01:24:44.951Z,25.60
2022-12-03T01:27:13.103Z,28.17
2022-12-03T01:29:41.199Z,30.17
2022-12-03T01:32:19.782Z,26.77
2022-12-03T01:34:50.352Z,30.20
2022-12-03T01:37:23.439Z,28.90
2022-12-03T01:39:51.589Z,28.17
2022-12-03T01:42:36.460Z,29.53
2022-12-03T01:45:05.856Z,29.83
2022-12-03T01:47:37.744Z,28.27
2022-12-03T01:50:09.171Z,27.07
2022-12-03T01:52:39.822Z,26.10
2022-12-03T01:55:15.348Z,28.47
2022-12-03T01:57:47.508Z,26.57
2022-12-03T02:00:18.947Z,28.17
2022-12-03T02:02:51.719Z,29.60
2022-12-03T02:05:24.052Z,27.13
2022-12-03T02:07:52.334Z,29.03
2022-12-03T02:10:25.170Z,26.40
2022-12-03T02:12:59.774Z,28.27
2022-12-03T02:15:28.240Z,27.97
2022-12-03T02:17:58.600Z,28.10
2022-12-03T02:20:27.273Z,28.83
2022-12-03T02:23:04.561Z,30.17
2022-12-03T02:25:36.803Z,27.03
2022-12-03T02:28:07.781Z,28.70
2022-12-03T02:30:36.373Z,32.23
2022-12-03T02:33:05.215Z,27.00
2022-12-03T02:35:35.747Z,27.43
2022-12-03T02:38:16.691Z,26.70
2022-12-03T02:40:48.935Z,31.43
2022-12-03T02:43:17.775Z,26.00
2022-12-03T02:45:49.356Z,27.03
2022-12-03T02:48:20.362Z,28.37
2022-12-03T02:50:53.754Z,26.97
2022-12-03T02:53:27.081Z,28.83
2022-12-03T02:56:00.544Z,30.00
2022-12-03T02:58:32.782Z,28.03
2022-12-03T03:01:03.470Z,26.47
2022-12-03T03:03:33.467Z,29.33
2022-12-03T03:06:03.758Z,30.73
2022-12-03T03:08:32.462Z,28.67
2022-12-03T03:11:03.573Z,26.87
2022-12-03T03:13:33.888Z,31.07
2022-12-03T03:16:04.008Z,28.30
2022-12-03T03:18:33.265Z,27.43
2022-12-03T03:21:01.827Z,29.13
2022-12-03T03:23:30.064Z,30.60
2022-12-03T03:26:03.714Z,27.07
2022-12-03T03:28:32.871Z,27.50
2022-12-03T03:31:03.418Z,26.93
2022-12-03T03:33:32.399Z,29.20
2022-12-03T03:36:01.453Z,28.50
2022-12-03T03:38:30.475Z,26.80
2022-12-03T03:41:03.110Z,29.17
2022-12-03T03:43:34.730Z,27.13
2022-12-03T03:46:04.971Z,28.87
2022-12-03T03:48:34.114Z,28.73
2022-12-03T03:51:03.571Z,27.53
2022-12-03T03:53:32.555Z,27.80
2022-12-03T03:56:02.240Z,26.73
2022-12-03T03:58:30.443Z,26.80
2022-12-03T04:00:58.674Z,31.40
2022-12-03T04:03:26.906Z,25.40
2022-12-03T04:05:55.183Z,28.37
2022-12-03T04:08:23.369Z,30.33
2022-12-03T04:11:08.811Z,27.30
2022-12-03T04:13:38.273Z,27.97
2022-12-03T04:16:07.085Z,30.43
2022-12-03T04:18:44.486Z,29.33
2022-12-03T04:21:28.916Z,29.50
2022-12-03T04:23:57.192Z,28.47
2022-12-03T04:26:43.039Z,29.87
2022-12-03T04:29:13.411Z,28.20
2022-12-03T04:31:59.514Z,27.37
2022-12-03T04:34:45.246Z,27.27
2022-12-03T04:37:13.599Z,28.77
2022-12-03T04:39:42.369Z,27.57
2022-12-03T04:42:10.635Z,27.40
2022-12-03T04:44:40.147Z,25.07
2022-12-03T04:47:11.521Z,30.30
2022-12-03T04:49:42.488Z,30.00
2022-12-03T04:52:12.409Z,28.33
2022-12-03T04:54:42.332Z,29.57
2022-12-03T04:57:11.589Z,28.03
2022-12-03T04:59:41.643Z,26.53
2022-12-03T05:02:10.126Z,30.90
2022-12-03T05:04:38.516Z,30.33
2022-12-03T05:07:06.704Z,32.00
2022-12-03T05:09:35.010Z,31.70
2022-12-03T05:12:04.001Z,29.13
2022-12-03T05:14:32.331Z,28.67
2022-12-03T05:17:01.981Z,27.97
2022-12-03T05:19:45.082Z,28.93
2022-12-03T05:22:13.337Z,31.80
2022-12-03T05:24:41.460Z,28.80
2022-12-03T05:27:09.669Z,29.57
2022-12-03T05:29:37.841Z,29.47
2022-12-03T05:32:07.643Z,30.40
2022-12-03T05:34:35.901Z,30.33
2022-12-03T05:37:04.111Z,30.90
2022-12-03T05:39:32.427Z,28.70
2022-12-03T05:42:18.204Z,29.03
2022-12-03T05:44:48.976Z,28.43
2022-12-03T05:47:18.815Z,28.47
2022-12-03T05:49:47.111Z,30.10
2022-12-03T05:52:15.214Z,30.67
2022-12-03T05:54:43.469Z,31.60
2022-12-03T05:57:11.939Z,28.93
2022-12-03T05:59:40.417Z,28.83
2022-12-03T06:02:08.689Z,33.17
2022-12-03T06:04:38.544Z,30.43
2022-12-03T06:07:09.700Z,30.87
2022-12-03T06:09:41.927Z,29.80
2022-12-03T06:12:10.135Z,30.00
2022-12-03T06:14:38.260Z,26.53
2022-12-03T06:17:06.425Z,29.93
2022-12-03T06:19:34.646Z,30.43
2022-12-03T06:22:04.186Z,31.37
2022-12-03T06:24:32.391Z,27.93
2022-12-03T06:27:00.564Z,29.83
2022-12-03T06:29:28.872Z,28.57
2022-12-03T06:31:57.072Z,27.57
2022-12-03T06:34:25.554Z,33.57
2022-12-03T06:36:53.671Z,28.90
2022-12-03T06:39:23.617Z,28.03
2022-12-03T06:41:52.007Z,29.83
2022-12-03T06:44:20.447Z,28.30
2022-12-03T06:47:03.806Z,30.03
2022-12-03T06:49:32.449Z,32.77
2022-12-03T06:52:00.623Z,30.43
2022-12-03T06:54:30.169Z,28.63
2022-12-03T06:56:58.293Z,30.47
2022-12-03T06:59:26.965Z,31.40
2022-12-03T07:01:55.191Z,28.13
2022-12-03T07:04:23.435Z,34.77
2022-12-03T07:06:52.233Z,31.43
2022-12-03T07:09:20.630Z,31.00
2022-12-03T07:11:50.155Z,32.97
2022-12-03T07:14:18.272Z,28.10
2022-12-03T07:16:46.479Z,30.93
2022-12-03T07:19:15.713Z,31.30
2022-12-03T07:21:43.952Z,31.90
2022-12-03T07:24:12.294Z,32.50
2022-12-03T07:26:40.553Z,34.80
2022-12-03T07:29:10.119Z,31.13
2022-12-03T07:31:38.290Z,33.27
2022-12-03T07:34:06.570Z,34.07
2022-12-03T07:36:34.811Z,32.97
2022-12-03T07:39:03.003Z,31.73
2022-12-03T07:41:32.680Z,32.97
2022-12-03T07:44:00.929Z,31.33
2022-12-03T07:46:30.557Z,33.53
2022-12-03T07:48:58.819Z,33.77
2022-12-03T07:51:31.958Z,32.73
2022-12-03T07:54:00.756Z,31.90
2022-12-03T07:56:28.917Z,33.03
2022-12-03T07:58:57.133Z,33.17
2022-12-03T08:01:25.427Z,39.50
2022-12-03T08:03:55.025Z,38.83
2022-12-03T08:06:23.252Z,35.67
2022-12-03T08:08:51.804Z,36.93
2022-12-03T08:11:20.062Z,37.30
2022-12-03T08:13:48.192Z,36.33
2022-12-03T08:16:19.868Z,34.43
2022-12-03T08:18:58.992Z,36.47
2022-12-03T08:21:30.919Z,36.40
2022-12-03T08:23:59.708Z,34.27
2022-12-03T08:26:29.771Z,39.27
2022-12-03T08:28:58.308Z,34.83
2022-12-03T08:31:33.157Z,37.03
2022-12-03T08:34:20.101Z,40.93
2022-12-03T08:36:49.688Z,38.27
2022-12-03T08:39:31.057Z,38.77
2022-12-03T08:42:27.631Z,35.90
2022-12-03T08:44:56.517Z,38.63
2022-12-03T08:47:25.898Z,35.57
2022-12-03T08:49:59.900Z,39.73
2022-12-03T08:52:34.265Z,41.57
2022-12-03T08:55:30.530Z,37.30
2022-12-03T08:57:59.424Z,39.63
2022-12-03T09:00:28.012Z,37.77
2022-12-03T09:03:00.736Z,37.60
2022-12-03T09:05:33.441Z,38.60
2022-12-03T09:08:01.800Z,36.67
2022-12-03T09:10:30.122Z,39.33
2022-12-03T09:12:58.248Z,38.27
2022-12-03T09:15:26.374Z,32.97
2022-12-03T09:17:54.498Z,37.43
2022-12-03T09:20:22.676Z,36.83
2022-12-03T09:22:52.382Z,38.07
2022-12-03T09:25:20.555Z,37.43
2022-12-03T09:27:48.924Z,42.33
2022-12-03T09:30:17.675Z,39.07
2022-12-03T09:32:46.060Z,42.50
2022-12-03T09:35:14.248Z,41.07
2022-12-03T09:37:42.479Z,39.77
2022-12-03T09:40:14.133Z,35.90
2022-12-03T09:42:42.591Z,37.10
2022-12-03T09:45:14.319Z,41.33
2022-12-03T09:47:47.774Z,40.93
2022-12-03T09:50:20.513Z,39.77
2022-12-03T09:52:51.031Z,39.60
2022-12-03T09:55:24.993Z,39.23
2022-12-03T09:57:53.854Z,36.70
2022-12-03T10:00:24.777Z,34.07
2022-12-03T10:02:55.418Z,39.77
2022-12-03T10:05:24.576Z,39.33
2022-12-03T10:07:53.631Z,37.93
2022-12-03T10:10:25.612Z,37.37
2022-12-03T10:12:54.210Z,37.80
2022-12-03T10:15:25.082Z,43.43
2022-12-03T10:17:55.868Z,45.30
2022-12-03T10:20:26.526Z,38.47
2022-12-03T10:22:54.820Z,35.87
2022-12-03T10:25:25.215Z,40.50
2022-12-03T10:27:59.896Z,37.80
2022-12-03T10:30:29.535Z,38.47
2022-12-03T10:33:02.599Z,38.00
2022-12-03T10:35:41.030Z,39.10
2022-12-03T10:38:22.262Z,37.50
2022-12-03T10:40:52.451Z,36.60
2022-12-03T10:43:25.910Z,44.07
2022-12-03T10:46:13.370Z,38.67
2022-12-03T10:48:41.677Z,36.97
2022-12-03T10:51:22.121Z,35.50
2022-12-03T10:53:51.757Z,37.53
2022-12-03T10:56:26.362Z,39.10
2022-12-03T10:58:55.027Z,38.70
2022-12-03T11:01:25.905Z,39.97
2022-12-03T11:03:56.595Z,38.63
2022-12-03T11:06:25.860Z,38.60
2022-12-03T11:08:59.607Z,41.33
2022-12-03T11:11:32.768Z,36.27
2022-12-03T11:14:02.117Z,31.67
2022-12-03T11:17:09.875Z,38.43
2022-12-03T11:19:50.296Z,37.17
2022-12-03T11:22:40.725Z,37.43
2022-12-03T11:28:54.498Z,38.43
2022-12-03T11:31:38.407Z,34.23
2022-12-03T11:34:49.731Z,39.07
2022-12-03T11:37:25.995Z,35.43
2022-12-03T11:40:39.141Z,40.53
2022-12-03T11:43:12.000Z,38.77
2022-12-03T11:45:41.619Z,33.83
2022-12-03T11:48:15.505Z,35.03
2022-12-03T11:50:45.568Z,34.63
2022-12-03T11:53:18.809Z,36.10
2022-12-03T11:55:53.136Z,36.37
2022-12-03T11:58:26.434Z,37.50
2022-12-03T12:00:59.639Z,38.23
2022-12-03T12:03:33.501Z,32.27
2022-12-03T12:06:05.562Z,36.40
2022-12-03T12:08:35.460Z,35.47
2022-12-03T12:11:03.999Z,38.10
2022-12-03T12:13:55.615Z,33.93
2022-12-03T12:16:58.357Z,34.77
2022-12-03T12:19:39.871Z,35.33
2022-12-03T12:22:31.083Z,35.57
2022-12-03T12:25:01.568Z,35.93
2022-12-03T12:27:37.479Z,34.93
2022-12-03T12:30:10.915Z,36.40
2022-12-03T12:32:47.567Z,38.97
2022-12-03T12:35:19.982Z,33.23
2022-12-03T12:37:59.149Z,36.43
2022-12-03T12:40:30.617Z,32.80
2022-12-03T12:43:03.024Z,36.40
2022-12-03T12:45:37.487Z,34.77
2022-12-03T12:48:18.270Z,36.97
2022-12-03T12:50:49.096Z,36.70
2022-12-03T12:53:24.822Z,34.90
2022-12-03T12:55:58.086Z,29.90
2022-12-03T12:58:28.930Z,36.40
2022-12-03T13:01:00.577Z,36.07
2022-12-03T13:03:34.852Z,41.77
2022-12-03T13:06:04.142Z,35.33
2022-12-03T13:08:34.737Z,36.93
2022-12-03T13:11:04.027Z,33.77
2022-12-03T13:13:43.069Z,34.93
2022-12-03T13:16:18.342Z,33.90
2022-12-03T13:18:50.778Z,39.87
2022-12-03T13:21:25.563Z,36.57
2022-12-03T13:23:56.592Z,35.90
2022-12-03T13:26:37.677Z,37.67
2022-12-03T13:29:13.757Z,37.03
2022-12-03T13:31:44.427Z,38.00
2022-12-03T13:34:22.891Z,33.30
2022-12-03T13:36:57.515Z,37.33
2022-12-03T13:39:32.480Z,37.30
2022-12-03T13:42:49.340Z,37.50
2022-12-03T13:45:36.829Z,34.07
2022-12-03T13:48:21.207Z,36.93
2022-12-03T13:50:53.005Z,35.50
2022-12-03T13:53:24.192Z,36.23
2022-12-03T13:55:56.405Z,36.93
2022-12-03T13:58:24.642Z,37.07
2022-12-03T14:00:52.878Z,38.77
2022-12-03T14:03:21.197Z,34.77
2022-12-03T14:05:50.708Z,37.73
2022-12-03T14:08:18.945Z,36.37
2022-12-03T14:10:47.277Z,42.17
2022-12-03T14:13:15.520Z,36.47
2022-12-03T14:15:43.747Z,38.73
2022-12-03T14:18:11.930Z,39.37
2022-12-03T14:20:40.094Z,35.57
2022-12-03T14:23:09.691Z,39.10
2022-12-03T14:25:37.842Z,35.63
2022-12-03T14:28:08.680Z,37.37
2022-12-03T14:30:36.994Z,38.07
2022-12-03T14:33:05.521Z,35.53
2022-12-03T14:35:33.748Z,33.77
2022-12-03T14:38:01.939Z,35.97
2022-12-03T14:40:31.447Z,33.27
2022-12-03T14:42:59.707Z,32.17
2022-12-03T14:45:30.082Z,35.50
2022-12-03T14:47:58.304Z,31.93
2022-12-03T14:50:26.465Z,34.27
2022-12-03T14:52:54.845Z,35.00
2022-12-03T14:55:24.095Z,30.87
2022-12-03T14:57:53.751Z,35.90
2022-12-03T15:00:23.481Z,33.30
2022-12-03T15:02:51.700Z,31.20
2022-12-03T15:05:26.416Z,34.47
2022-12-03T15:07:56.790Z,31.93
2022-12-03T15:10:25.005Z,29.70
2022-12-03T15:12:54.847Z,29.77
2022-12-03T15:15:23.027Z,33.50
2022-12-03T15:17:51.242Z,34.93
2022-12-03T15:20:19.775Z,31.43
2022-12-03T15:22:48.036Z,33.83
2022-12-03T15:25:18.152Z,33.80
2022-12-03T15:27:46.492Z,34.07
2022-12-03T15:30:16.689Z,31.77
2022-12-03T15:32:44.913Z,30.27
2022-12-03T15:35:17.628Z,34.07
2022-12-03T15:37:46.013Z,35.80
2022-12-03T15:40:15.197Z,36.10
2022-12-03T15:42:43.377Z,36.53
2022-12-03T15:45:15.361Z,37.13
2022-12-03T15:47:45.555Z,37.13
2022-12-03T15:50:14.350Z,33.97
2022-12-03T15:52:43.127Z,33.77
2022-12-03T15:55:12.267Z,38.67
2022-12-03T15:57:40.495Z,36.77
2022-12-03T16:00:12.725Z,33.60
2022-12-03T16:02:41.064Z,36.73
2022-12-03T16:05:14.262Z,35.07
2022-12-03T16:07:42.579Z,36.27
2022-12-03T16:10:12.285Z,38.57
2022-12-03T16:12:40.497Z,38.00
2022-12-03T16:15:10.004Z,34.27
2022-12-03T16:17:38.221Z,38.07
2022-12-03T16:20:08.643Z,36.70
2022-12-03T16:22:38.193Z,36.20
2022-12-03T16:25:07.285Z,36.73
2022-12-03T16:27:37.028Z,37.97
2022-12-03T16:30:07.838Z,36.37
2022-12-03T16:32:36.055Z,37.57
2022-12-03T16:35:04.663Z,35.43
2022-12-03T16:37:33.562Z,36.97
2022-12-03T16:40:04.194Z,37.50
2022-12-03T16:42:32.370Z,36.70
2022-12-03T16:45:22.964Z,38.53
2022-12-03T16:47:51.215Z,38.77
2022-12-03T16:50:27.414Z,35.43
2022-12-03T16:52:57.552Z,42.83
2022-12-03T16:55:27.282Z,40.20
2022-12-03T16:57:55.507Z,41.20
2022-12-03T17:00:25.803Z,37.23
2022-12-03T17:02:54.090Z,40.70
2022-12-03T17:05:22.343Z,41.53
2022-12-03T17:07:50.637Z,38.53
2022-12-03T17:10:19.092Z,40.60
2022-12-03T17:13:08.694Z,40.40
2022-12-03T17:15:37.666Z,40.27
2022-12-03T17:18:07.059Z,42.60
2022-12-03T17:20:37.404Z,38.80
2022-12-03T17:23:05.757Z,39.60
2022-12-03T17:25:34.407Z,40.83
2022-12-03T17:28:04.110Z,40.20
2022-12-03T17:30:32.390Z,39.43
2022-12-03T17:33:00.592Z,37.57
2022-12-03T17:35:28.837Z,38.47
2022-12-03T17:37:57.184Z,39.77
2022-12-03T17:40:25.415Z,40.80
2022-12-03T17:42:53.603Z,41.43
2022-12-03T17:45:23.227Z,41.70
2022-12-03T17:47:51.440Z,40.97
2022-12-03T17:50:19.938Z,38.30
2022-12-03T17:52:48.612Z,38.23
2022-12-03T17:55:30.946Z,42.43
2022-12-03T17:58:04.783Z,39.87
2022-12-03T18:00:35.765Z,42.23
2022-12-03T18:03:04.176Z,41.23
2022-12-03T18:05:34.715Z,41.83
2022-12-03T18:08:11.269Z,39.37
2022-12-03T18:10:41.470Z,44.57
2022-12-03T18:13:14.965Z,36.40
2022-12-03T18:16:00.051Z,38.70
2022-12-03T18:18:36.121Z,38.17
2022-12-03T18:21:18.526Z,40.00
2022-12-03T18:23:56.723Z,41.57
2022-12-03T18:26:26.610Z,39.73
2022-12-03T18:28:55.388Z,38.23
2022-12-03T18:31:27.285Z,40.77
2022-12-03T18:33:55.971Z,37.97
2022-12-03T18:36:32.478Z,39.33
2022-12-03T18:39:03.327Z,38.70
2022-12-03T18:41:35.327Z,36.20
2022-12-03T18:44:05.411Z,37.67
2022-12-03T18:46:54.728Z,37.87
2022-12-03T18:49:28.041Z,37.27
2022-12-03T18:51:59.736Z,36.90
2022-12-03T18:57:21.166Z,41.13
2022-12-03T18:59:50.955Z,37.73
2022-12-03T19:07:55.607Z,41.70
2022-12-03T19:10:30.332Z,38.17
2022-12-03T19:13:08.196Z,43.00
2022-12-03T19:15:41.586Z,37.50
2022-12-03T19:18:17.083Z,39.40
2022-12-03T19:20:47.144Z,34.10
2022-12-03T19:23:26.246Z,33.53
2022-12-03T19:26:00.908Z,37.23
2022-12-03T19:28:35.193Z,37.53
2022-12-03T19:31:10.022Z,38.27
2022-12-03T19:33:49.237Z,41.90
2022-12-03T19:36:26.010Z,40.13
2022-12-03T19:39:02.958Z,37.47
2022-12-03T19:41:32.693Z,41.90
2022-12-03T19:44:10.794Z,41.43
2022-12-03T19:46:45.413Z,37.57
2022-12-03T19:49:21.488Z,40.23
2022-12-03T19:51:51.428Z,37.80
2022-12-03T19:54:21.890Z,42.03
2022-12-03T19:57:03.699Z,39.37
2022-12-03T19:59:33.389Z,39.93
2022-12-03T20:02:02.709Z,44.17
2022-12-03T20:04:32.632Z,43.30
2022-12-03T20:07:02.596Z,42.23
2022-12-03T20:09:31.567Z,37.73
2022-12-03T20:12:03.698Z,41.30
2022-12-03T20:14:39.325Z,37.43
2022-12-03T20:17:14.450Z,40.37
2022-12-03T20:19:57.182Z,38.23
2022-12-03T20:22:27.795Z,41.23
2022-12-03T20:25:03.528Z,39.30
2022-12-03T20:27:40.543Z,41.50
2022-12-03T20:30:15.896Z,41.20
2022-12-03T20:32:51.759Z,45.67
2022-12-03T20:35:33.188Z,46.53
2022-12-03T20:38:06.836Z,40.70
2022-12-03T20:40:43.699Z,47.10
2022-12-03T20:43:22.052Z,45.77
2022-12-03T20:46:06.993Z,45.37
2022-12-03T20:48:40.469Z,45.43
2022-12-03T20:51:16.302Z,48.53
2022-12-03T20:53:50.341Z,47.73
2022-12-03T20:56:26.979Z,52.03
2022-12-03T21:01:51.107Z,48.67
2022-12-03T21:04:26.802Z,51.40
2022-12-03T21:06:56.764Z,47.30
2022-12-03T21:09:25.276Z,55.00
2022-12-03T21:11:55.836Z,50.73
2022-12-03T21:14:26.788Z,49.83
2022-12-03T21:17:11.938Z,55.87
2022-12-03T21:19:44.498Z,43.47
2022-12-03T21:22:14.789Z,50.97
2022-12-03T21:24:43.777Z,46.77
2022-12-03T21:27:18.450Z,49.70
2022-12-03T21:29:58.669Z,50.63
2022-12-03T21:32:27.580Z,50.80
2022-12-03T21:35:02.151Z,55.90
2022-12-03T21:37:43.449Z,52.87
2022-12-03T21:40:16.165Z,46.77
2022-12-03T21:42:48.831Z,51.53
2022-12-03T21:45:21.669Z,49.80
2022-12-03T21:47:59.250Z,44.33
2022-12-03T21:50:29.073Z,49.33
2022-12-03T21:53:07.436Z,50.03
2022-12-03T21:55:39.791Z,47.33
2022-12-03T21:58:11.664Z,47.10
2022-12-03T22:00:42.775Z,46.67
2022-12-03T22:03:20.196Z,48.03
2022-12-03T22:05:54.021Z,49.63
2022-12-03T22:08:28.924Z,45.43
2022-12-03T22:10:59.326Z,49.50
2022-12-03T22:13:27.816Z,44.87
2022-12-03T22:15:57.399Z,48.03
2022-12-03T22:18:26.231Z,46.00
2022-12-03T22:20:57.538Z,49.00
2022-12-03T22:23:28.056Z,50.20
2022-12-03T22:26:13.358Z,51.93
2022-12-03T22:28:46.344Z,49.60
2022-12-03T22:31:16.960Z,50.67
2022-12-03T22:33:50.718Z,47.50
2022-12-03T22:36:25.114Z,49.13
2022-12-03T22:39:04.633Z,51.80
2022-12-03T22:41:43.265Z,49.63
2022-12-03T22:44:14.105Z,45.00
2022-12-03T22:46:45.027Z,46.40
2022-12-03T22:49:16.492Z,46.90
2022-12-03T22:51:48.352Z,51.80
2022-12-03T22:54:24.226Z,47.60
2022-12-03T22:56:55.994Z,48.90
2022-12-03T22:59:25.862Z,45.17
2022-12-03T23:02:10.740Z,43.97
2022-12-03T23:04:46.234Z,46.07
2022-12-03T23:07:17.238Z,46.80
2022-12-03T23:09:53.335Z,45.60
2022-12-03T23:12:26.594Z,48.50
2022-12-03T23:14:58.932Z,46.27
2022-12-03T23:17:27.892Z,45.27
2022-12-03T23:19:57.829Z,44.93
2022-12-03T23:22:26.752Z,45.20
2022-12-03T23:25:01.350Z,42.90
2022-12-03T23:27:37.363Z,42.53
2022-12-03T23:30:14.323Z,45.70
2022-12-03T23:32:45.258Z,44.80
2022-12-03T23:35:16.983Z,37.90
2022-12-03T23:37:46.876Z,40.33
2022-12-03T23:40:19.657Z,41.77
2022-12-03T23:42:55.778Z,42.97
2022-12-03T23:45:29.128Z,40.07
2022-12-03T23:48:04.343Z,41.83
2022-12-03T23:50:35.186Z,41.03
2022-12-03T23:53:06.431Z,44.10
2022-12-03T23:55:46.578Z,43.67
2022-12-03T23:58:20.550Z,44.63
